Ames, NE (68621)

5:25 PM CST on December 09, 2016 (GMT -0600)
| | Change Station

Elev -9999 ft 0.00 °N, 0.00 °E | Updated 8 minutes ago

Overcast
Overcast
64 °F
Feels Like 64 °F
N
10
Wind Variable Wind from ESE
Gusts 15 mph

Today
High -- | Low -- °F
--% Chance of Precip.
Yesterday
High -- | Low -- °F
Precip. -- in
Pressure 30.49 in
Visibility 10.0 miles
Clouds Overcast 5000 ft
Dew Point 58 °F
Humidity 81%
Rainfall --
Snow Depth Not available.
7:41 AM 4:56 PM
Waxing Gibbous, 78% visible
METAR KFET 092315Z AUTO 09005KT 10SM OVC050 M07/M12 A3049 RMK AO2 T10661116
Pressure 30.49 in
Visibility 10.0 miles
Clouds Overcast 5000 ft
Dew Point 58 °F
Humidity 81%
Rainfall --
Snow Depth Not available.
7:41 AM 4:56 PM
Waxing Gibbous, 78% visible
METAR KFET 092315Z AUTO 09005KT 10SM OVC050 M07/M12 A3049 RMK AO2 T10661116

10-Day Weather Forecast

Almanac

Astronomy

Dec. 09, 2016 Rise Set
Actual Time
Civil Twilight
Nautical Twilight
Astronomical Twilight
Moon
Length of Visible Light
Length of Day
Tomorrow will be .
, % of the Moon is Illuminated

Today's Extremes

State Highs State Lows

Community

WunderPhotos

Upload Photos

1,956,535 photos uploaded!

WunderBlog® & News

Nearby

Air Quality

  Air Quality AQ Index Pollutant
Not available.

Snow Depth

Station Depth Elevation

Earthquake Activity

City Distance Mag. Time & Date
Minimum magnitude displayed is 2.5.

Coastal Water Temperatures

Place Temperature

Stations

Nearby Weather Stations

Station Location Temp. Windchill Dew Point Humidity Wind Precip. Elev Updated Type
                   

Watches & Warnings

There are currently no watches in effect.